地図

経路データ

SID SEASON NUMBER BASIN SUBBASIN NAME ISO_TIME NATURE LAT LON WMO_WIND WMO_PRES WMO_AGENCY TRACK_TYPE DIST2LAND LANDFALL IFLAG USA_AGENCY USA_ATCF_ID USA_LAT USA_LON USA_RECORD USA_STATUS USA_WIND USA_PRES USA_SSHS USA_R34_NE USA_R34_SE USA_R34_SW USA_R34_NW USA_R50_NE USA_R50_SE USA_R50_SW USA_R50_NW USA_R64_NE USA_R64_SE USA_R64_SW USA_R64_NW USA_POCI USA_ROCI USA_RMW USA_EYE TOKYO_LAT TOKYO_LON TOKYO_GRADE TOKYO_WIND TOKYO_PRES TOKYO_R50_DIR TOKYO_R50_LONG TOKYO_R50_SHORT TOKYO_R30_DIR TOKYO_R30_LONG TOKYO_R30_SHORT TOKYO_LAND CMA_LAT CMA_LON CMA_CAT CMA_WIND CMA_PRES HKO_LAT HKO_LON HKO_CAT HKO_WIND HKO_PRES NEWDELHI_LAT NEWDELHI_LON NEWDELHI_GRADE NEWDELHI_WIND NEWDELHI_PRES NEWDELHI_CI NEWDELHI_DP NEWDELHI_POCI REUNION_LAT REUNION_LON REUNION_TYPE REUNION_WIND REUNION_PRES REUNION_TNUM REUNION_CI REUNION_RMW REUNION_R34_NE REUNION_R34_SE REUNION_R34_SW REUNION_R34_NW REUNION_R50_NE REUNION_R50_SE REUNION_R50_SW REUNION_R50_NW REUNION_R64_NE REUNION_R64_SE REUNION_R64_SW REUNION_R64_NW BOM_LAT BOM_LON BOM_TYPE BOM_WIND BOM_PRES BOM_TNUM BOM_CI BOM_RMW BOM_R34_NE BOM_R34_SE BOM_R34_SW BOM_R34_NW BOM_R50_NE BOM_R50_SE BOM_R50_SW BOM_R50_NW BOM_R64_NE BOM_R64_SE BOM_R64_SW BOM_R64_NW BOM_ROCI BOM_POCI BOM_EYE BOM_POS_METHOD BOM_PRES_METHOD NADI_LAT NADI_LON NADI_CAT NADI_WIND NADI_PRES WELLINGTON_LAT WELLINGTON_LON WELLINGTON_WIND WELLINGTON_PRES DS824_LAT DS824_LON DS824_STAGE DS824_WIND DS824_PRES TD9636_LAT TD9636_LON TD9636_STAGE TD9636_WIND TD9636_PRES TD9635_LAT TD9635_LON TD9635_WIND TD9635_PRES TD9635_ROCI NEUMANN_LAT NEUMANN_LON NEUMANN_CLASS NEUMANN_WIND NEUMANN_PRES MLC_LAT MLC_LON MLC_CLASS MLC_WIND MLC_PRES USA_GUST BOM_GUST BOM_GUST_PER REUNION_GUST REUNION_GUST_PER USA_SEAHGT USA_SEARAD_NE USA_SEARAD_SE USA_SEARAD_SW USA_SEARAD_NW STORM_SPEED STORM_DIR
1985012S16161 1985 8 SP MM ERIC 1985-01-12 00:00:00 TS -15.8333 161.100 main 564 552 O_________O_O_ jtwc_sh SH111985 -15.8000 161.100 XX 25 -5 -15.9000 161.100 1 25 -15.8000 161.100 TC 25 3 44
1985012S16161 1985 8 SP MM ERIC 1985-01-12 03:00:00 TS -15.7299 161.201 main 552 540 P_________P_P_ SH111985 -15.6925 161.190 XX 25 -5 -15.8047 161.222 1 25 -15.6925 161.190 TC 25 3 47
1985012S16161 1985 8 SP MM ERIC 1985-01-12 06:00:00 TS -15.6392 161.315 main 540 539 O_________P_O_ jtwc_sh SH111985 -15.6000 161.300 XX 25 -5 -15.7176 161.345 1 25 -15.6000 161.300 TC 25 3 57
1985012S16161 1985 8 SP MM ERIC 1985-01-12 09:00:00 TS -15.5722 161.452 main 538 526 P_________P_P_ SH111985 -15.5350 161.443 XX 25 -5 -15.6466 161.471 1 25 -15.5350 161.443 TC 25 3 69
1985012S16161 1985 8 SP MM ERIC 1985-01-12 12:00:00 TS -15.5333 161.600 main 526 521 O_________O_O_ jtwc_sh SH111985 -15.5000 161.600 XX 25 -5 -15.6000 161.600 1 25 -15.5000 161.600 TC 25 3 80
1985012S16161 1985 8 SP MM ERIC 1985-01-12 15:00:00 TS -15.5225 161.745 main 521 500 P_________P_P_ SH111985 -15.4925 161.750 XX 25 -5 -15.5825 161.735 1 25 -15.4925 161.750 TC 25 3 89
1985012S16161 1985 8 SP MM ERIC 1985-01-12 18:00:00 TS -15.5283 161.892 main 500 489 O_________P_O_ jtwc_sh SH111985 -15.5000 161.900 XX 25 -5 -15.5849 161.877 1 25 -15.5000 161.900 TC 25 3 93
1985012S16161 1985 8 SP MM ERIC 1985-01-12 21:00:00 TS -15.5366 162.039 main 489 468 P_________P_P_ SH111985 -15.5075 162.042 XX 25 -5 -15.5949 162.031 1 25 -15.5075 162.042 TC 25 3 91
1985012S16161 1985 8 SP MM ERIC 1985-01-13 00:00:00 TS -15.5333 162.200 main 468 447 O_________O_O_ jtwc_sh SH111985 -15.5000 162.200 XX 25 -5 -15.6000 162.200 1 25 -15.5000 162.200 TC 25 3 83
1985012S16161 1985 8 SP MM ERIC 1985-01-13 03:00:00 TS -15.4927 162.390 main 447 426 P_________P_P_ SH111985 -15.4500 162.393 XX 25 -5 -15.5781 162.386 1 25 -15.4500 162.393 TC 25 4 78
1985012S16161 1985 8 SP MM ERIC 1985-01-13 06:00:00 TS -15.4500 162.595 main 424 403 O_________P_O_ jtwc_sh SH111985 -15.4000 162.600 XX 25 -5 -15.5500 162.585 1 25 -15.4000 162.600 TC 25 4 82
1985012S16161 1985 8 SP MM ERIC 1985-01-13 09:00:00 TS -15.4356 162.797 main 403 381 P_________P_P_ SH111985 -15.3925 162.800 XX 25 -5 -15.5219 162.792 1 25 -15.3925 162.800 TC 25 4 88
1985012S16161 1985 8 SP MM ERIC 1985-01-13 12:00:00 TS -15.4333 163.000 main 381 360 O_________O_O_ jtwc_sh SH111985 -15.4000 163.000 XX 25 -5 -15.5000 163.000 1 25 -15.4000 163.000 TC 25 4 89
1985012S16161 1985 8 SP MM ERIC 1985-01-13 15:00:00 TS -15.4322 163.195 main 360 339 P_________P_P_ SH111985 -15.4000 163.200 XX 25 -5 -15.4967 163.184 1 26 -15.4000 163.200 TC 25 4 90
1985012S16161 1985 8 SP MM ERIC 1985-01-13 18:00:00 TS -15.4332 163.390 main 339 318 O_________P_O_ jtwc_sh SH111985 -15.4000 163.400 XX 25 -5 -15.4997 163.370 1 27 -15.4000 163.400 TC 25 4 90
1985012S16161 1985 8 SP MM ERIC 1985-01-13 21:00:00 TS -15.4343 163.580 main 318 318 P_________P_P_ SH111985 -15.3999 163.585 XX 27 -5 -15.5029 163.571 1 28 -15.3999 163.585 TC 27 2 91
1985012S16161 1985 8 SP MM ERIC 1985-01-14 00:00:00 TS -15.4385 163.623 30 997 wellington main 318 297 O_______O_O_O_ jtwc_sh SH111985 -15.4000 163.800 XX 30 -5 -15.5000 161.500 30 997 -15.5000 163.800 1 30 -15.4000 163.800 TC 30 2 92
1985012S16161 1985 8 SP MM ERIC 1985-01-14 03:00:00 TS -15.4402 163.784 main 297 276 P_______P_P_P_ SH111985 -15.4075 164.085 XX 30 -5 -15.4946 162.000 30 997 -15.4782 164.075 1 30 -15.4075 164.085 TC 30 4 89
1985012S16161 1985 8 SP MM ERIC 1985-01-14 06:00:00 TS -15.4315 164.014 main 276 245 O_______P_P_O_ jtwc_sh SH111985 -15.4000 164.400 XX 30 -5 -15.4909 162.500 30 997 -15.4501 164.378 1 30 -15.4000 164.400 TC 30 5 86
1985012S16161 1985 8 SP MM ERIC 1985-01-14 09:00:00 TS -15.4034 164.277 main 245 214 P_______P_P_P_ SH111985 -15.3500 164.708 XX 30 -5 -15.4918 163.000 30 997 -15.4219 164.691 1 30 -15.3500 164.708 TC 30 6 85
1985012S16161 1985 8 SP MM ERIC 1985-01-14 12:00:00 TS -15.3750 164.625 30 997 wellington main 214 182 O_______O_O_O_ jtwc_sh SH111985 -15.3000 165.000 XX 30 -5 -15.5000 163.500 30 997 -15.4000 165.000 2 30 -15.3000 165.000 TC 30 6 87
1985012S16161 1985 8 SP MM ERIC 1985-01-14 15:00:00 TS -15.3727 164.939 main 182 150 P_______P_P_P_ SH111985 -15.2924 165.250 XX 32 -5 -15.5175 164.000 32 995 -15.3884 165.258 2 32 -15.2924 165.250 TC 32 6 91
1985012S16161 1985 8 SP MM ERIC 1985-01-14 18:00:00 TS -15.3816 165.253 main 139 107 O_______P_P_O_ jtwc_sh SH111985 -15.3000 165.500 XX 35 -5 -15.5421 164.500 35 993 -15.3844 165.513 2 35 -15.3000 165.500 TC 35 6 92
1985012S16161 1985 8 SP MM ERIC 1985-01-14 21:00:00 TS -15.3897 165.585 main 107 75 P_______P_P_P_ SH111985 -15.2999 165.778 XX 37 -5 -15.5706 165.000 37 991 -15.3883 165.786 2 37 -15.2999 165.778 TC 37 7 92
1985012S16161 1985 8 SP MM ERIC 1985-01-15 00:00:00 TS -15.4000 165.950 40 990 wellington main 64 32 O_______O_O_O_ jtwc_sh SH111985 -15.3000 166.100 XX 40 -5 -15.6000 165.500 40 990 -15.4000 166.100 2 40 -15.3000 166.100 TC 40 7 91
1985012S16161 1985 8 SP MM ERIC 1985-01-15 03:00:00 TS -15.4018 166.357 main 21 0 P_______P_P_P_ SH111985 -15.2925 166.478 XX 42 -5 -15.6166 166.004 43 987 -15.4056 166.470 2 42 -15.2925 166.478 TC 42 8 91
1985012S16161 1985 8 SP MM ERIC 1985-01-15 06:00:00 TS -15.4136 166.798 main 0 0 O_______P_P_O_ jtwc_sh SH111985 -15.3000 166.900 XX 45 -5 -15.6346 166.508 47 985 -15.4199 166.883 2 45 -15.3000 166.900 TC 45 9 93
1985012S16161 1985 8 SP MM ERIC 1985-01-15 09:00:00 TS -15.4448 167.252 main 15 10 P_______P_P_P_ SH111985 -15.3349 167.335 XX 47 -5 -15.6604 167.007 51 982 -15.4492 167.329 2 47 -15.3349 167.335 TC 47 9 96
1985012S16161 1985 8 SP MM ERIC 1985-01-15 12:00:00 TS -15.5000 167.725 55 980 wellington main 53 53 O_______O_O_O_ jtwc_sh SH111985 -15.4000 167.800 XX 50 -5 -15.7000 167.500 55 980 -15.5000 167.800 2 50 -15.4000 167.800 TC 50 9 98
1985012S16161 1985 8 SP MM ERIC 1985-01-15 15:00:00 TS -15.5808 168.209 main 89 89 P_______P_P_P_ SH111985 -15.4924 168.292 XX 52 -5 -15.7601 167.974 57 977 -15.5783 168.278 2 52 -15.4924 168.292 TC 52 10 101
1985012S16161 1985 8 SP MM ERIC 1985-01-15 18:00:00 TS -15.6779 168.705 main 117 117 O_______P_P_O_ jtwc_sh SH111985 -15.6000 168.800 XX 55 -5 -15.8343 168.442 60 975 -15.6773 168.777 2 55 -15.6000 168.800 TC 55 10 102
1985012S16161 1985 8 SP MM ERIC 1985-01-15 21:00:00 TS -15.7759 169.201 main 159 159 P_______P_P_P_ SH111985 -15.6999 169.300 XX 57 -5 -15.9163 168.915 62 972 -15.7877 169.288 2 57 -15.6999 169.300 TC 57 10 102
1985012S16161 1985 8 SP MM ERIC 1985-01-16 00:00:00 TS -15.8750 169.700 65 970 wellington main 207 207 O_______O_O_O_ jtwc_sh SH111985 -15.8000 169.800 XX 60 -5 -16.0000 169.400 65 970 -15.9000 169.800 2 60 -15.8000 169.800 TC 60 10 101
1985012S16161 1985 8 SP MM ERIC 1985-01-16 03:00:00 TS -15.9621 170.185 main 258 258 P_______P_P_P_ SH111985 -15.8999 170.300 XX 62 -5 -16.0576 169.863 66 968 -15.9911 170.276 2 63 -15.8999 170.300 TC 62 10 101
1985012S16161 1985 8 SP MM ERIC 1985-01-16 06:00:00 TS -16.0505 170.675 main 310 310 O_______P_P_O_ jtwc_sh SH111985 -16.0000 170.800 XX 65 -5 -16.1181 170.346 67 967 -16.0838 170.756 2 67 -16.0000 170.800 TC 65 10 101
1985012S16161 1985 8 SP MM ERIC 1985-01-16 09:00:00 TS -16.1410 171.177 main 363 363 P_______P_P_P_ SH111985 -16.0923 171.285 XX 70 -5 -16.1947 170.882 68 966 -16.1847 171.257 2 71 -16.0923 171.285 TC 70 10 101
1985012S16161 1985 8 SP MM ERIC 1985-01-16 12:00:00 TS -16.2500 171.725 70 965 wellington main 416 416 O_______O_O_O_ jtwc_sh SH111985 -16.2000 171.800 XX 75 -5 -16.3000 171.500 70 965 -16.3000 171.800 4 75 -16.2000 171.800 TC 75 11 102
1985012S16161 1985 8 SP MM ERIC 1985-01-16 15:00:00 TS -16.3801 172.328 main 480 476 P_______P_P_P_ SH111985 -16.3423 172.370 XX 77 -5 -16.4253 172.203 72 962 -16.4103 172.367 4 78 -16.3423 172.370 TC 77 13 103
1985012S16161 1985 8 SP MM ERIC 1985-01-16 18:00:00 TS -16.5299 172.994 main 476 399 O_______P_P_O_ jtwc_sh SH111985 -16.5000 173.000 XX 80 -5 -16.5813 172.994 75 960 -16.5384 172.982 4 82 -16.5000 173.000 TC 80 14 103
1985012S16161 1985 8 SP MM ERIC 1985-01-16 21:00:00 TS -16.6847 173.719 main 399 311 P_______P_P_P_ SH111985 -16.6348 173.678 XX 85 -5 -16.7716 173.863 77 957 -16.6974 173.655 4 86 -16.6348 173.678 TC 85 15 103
1985012S16161 1985 8 SP MM ERIC 1985-01-17 00:00:00 TS -16.8750 174.500 80 955 wellington main 311 234 O_______O_O_O_ jtwc_sh SH111985 -16.8000 174.400 XX 90 -5 -17.0000 174.800 80 955 -16.9000 174.400 4 90 -16.8000 174.400 TC 90 15 106
1985012S16161 1985 8 SP MM ERIC 1985-01-17 03:00:00 TS -17.1006 175.274 main 225 134 P_______P_P_P_ SH111985 -17.0192 175.098 XX 92 -5 -17.2381 175.747 78 956 -17.1260 175.154 4 92 -17.0192 175.098 TC 92 16 108
1985012S16161 1985 8 SP MM ERIC 1985-01-17 06:00:00 TS -17.3783 176.137 main 134 30 O_______P_P_O_ jtwc_sh SH111985 -17.3000 175.900 XX 95 -5 -17.5148 176.761 77 957 -17.3983 175.987 4 95 -17.3000 175.900 TC 95 19 109
1985012S16161 1985 8 SP MM ERIC 1985-01-17 09:00:00 TS -17.6987 177.127 main 30 0 P_______P_P_P_ SH111985 -17.6194 176.868 XX 97 -5 -17.8342 177.845 76 958 -17.7216 176.927 4 97 -17.6194 176.868 TC 97 21 109
1985012S16161 1985 8 SP MM ERIC 1985-01-17 12:00:00 TS -18.0750 178.250 75 960 wellington main 0 0 O_______O_O_O_ jtwc_sh SH111985 -18.0000 178.000 XX 100 -5 -18.2000 179.000 75 960 -18.1000 178.000 4 100 -18.0000 178.000 TC 100 24 110
1985012S16161 1985 8 SP MM ERIC 1985-01-17 15:00:00 TS -18.4886 179.470 main 95 95 P_______P_P_P_ SH111985 -18.4269 179.241 XX 97 -5 -18.5745 -179.786 72 962 -18.5252 179.222 4 97 -18.4269 179.241 TC 97 26 110
1985012S16161 1985 8 SP MM ERIC 1985-01-17 18:00:00 TS -18.9488 180.801 main 238 238 O_______P_P_O_ jtwc_sh SH111985 -18.9000 -179.400 XX 95 -5 -18.9953 -178.502 70 965 -18.9978 -179.421 4 95 -18.9000 -179.400 TC 95 28 110
1985012S16161 1985 8 SP MM ERIC 1985-01-17 21:00:00 TS -19.4414 182.210 main 379 379 P_______P_P_P_ SH111985 -19.3994 -177.972 XX 92 -5 -19.4683 -177.167 67 967 -19.4962 -177.979 4 92 -19.3994 -177.972 TC 92 29 110
1985012S16161 1985 8 SP MM ERIC 1985-01-18 00:00:00 TS -19.9500 183.675 65 970 wellington main 530 530 O_______O_O_O_ jtwc_sh SH111985 -19.9000 -176.500 XX 90 -5 -20.0000 -175.800 65 970 -20.0000 -176.500 4 90 -19.9000 -176.500 TC 90 29 110
1985012S16161 1985 8 SP MM ERIC 1985-01-18 03:00:00 TS -20.4190 185.098 main 680 680 P_______P_P_P_ SH111985 -20.3486 -175.056 XX 87 -5 -20.5962 -174.414 -20.4594 -175.066 4 86 -20.3486 -175.056 TC 87 28 109
1985012S16161 1985 8 SP MM ERIC 1985-01-18 06:00:00 TS -20.8861 186.536 main 800 797 O_______P_P_O_ jtwc_sh SH111985 -20.8000 -173.600 XX 85 -5 -21.2550 -173.009 -20.9226 -173.604 4 82 -20.8000 -173.600 TC 85 29 109
1985012S16161 1985 8 SP MM ERIC 1985-01-18 09:00:00 TS -21.3642 187.976 main 850 850 P_______P_P_P_ SH111985 -21.2912 -172.114 XX 80 -5 -21.9721 -171.578 -21.3994 -172.115 4 78 -21.2912 -172.114 TC 80 28 110
1985012S16161 1985 8 SP MM ERIC 1985-01-18 12:00:00 TS -21.8333 189.400 55 980 wellington main 910 910 O_______P_O_O_ jtwc_sh SH111985 -21.8000 -170.600 XX 75 -5 -22.7432 -170.119 -21.9000 -170.600 4 75 -21.8000 -170.600 TC 75 29 109
1985012S16161 1985 8 SP MM ERIC 1985-01-18 15:00:00 TS -22.3154 190.933 main 1005 1005 P_______P_P_P_ SH111985 -22.2835 -169.063 XX 72 -5 -23.5636 -168.628 -22.3790 -169.074 4 71 -22.2835 -169.063 TC 72 30 109
1985012S16161 1985 8 SP MM ERIC 1985-01-18 18:00:00 TS -22.8293 192.493 main 1122 1122 O_______P_P_O_ jtwc_sh SH111985 -22.8000 -167.500 XX 70 -5 -24.4279 -167.100 -22.8880 -167.520 4 67 -22.8000 -167.500 TC 70 31 110
1985012S16161 1985 8 SP MM ERIC 1985-01-18 21:00:00 TS -23.3965 194.076 main 1262 1262 P_______P_P_P_ SH111985 -23.3682 -165.921 XX 65 -5 -25.3304 -165.535 -23.4531 -165.931 4 63 -23.3682 -165.921 TC 65 32 112
1985012S16161 1985 8 SP MM ERIC 1985-01-19 00:00:00 TS -24.0333 195.700 45 987 wellington main 1410 1410 O_______P_O_O_ jtwc_sh SH111985 -24.0000 -164.300 XX 60 -5 -26.2651 -163.928 -24.1000 -164.300 2 60 -24.0000 -164.300 TC 60 33 113
1985012S16161 1985 8 SP MM ERIC 1985-01-19 03:00:00 TS -24.6719 197.377 main 1580 1580 P_______P_P_P_ SH111985 -24.6457 -162.627 XX 57 -5 -27.2251 -162.279 -24.7243 -162.614 2 56 -24.6457 -162.627 TC 57 34 114
1985012S16161 1985 8 SP MM ERIC 1985-01-19 06:00:00 TS -25.4148 199.106 main 1754 1754 O_______P_P_O_ jtwc_sh SH111985 -25.4000 -160.900 XX 55 -5 -28.2031 -160.587 -25.4443 -160.881 2 52 -25.4000 -160.900 TC 55 35 117
1985012S16161 1985 8 SP MM ERIC 1985-01-19 09:00:00 TS -26.2726 200.880 main 1953 1953 P_______P_P_P_ SH111985 -26.2505 -159.125 XX 50 -5 -29.1916 -158.851 -26.3168 -159.109 2 48 -26.2505 -159.125 TC 50 38 121
1985012S16161 1985 8 SP MM ERIC 1985-01-19 12:00:00 TS -27.3333 202.700 40 990 wellington main 2160 2160 O_______P_O_O_ jtwc_sh SH111985 -27.3000 -157.300 XX 45 -5 -30.1823 -157.074 -27.4000 -157.300 2 45 -27.3000 -157.300 TC 45 40 125
1985012S16161 1985 8 SP MM ERIC 1985-01-19 15:00:00 TS -28.5958 204.568 main 2396 2396 P_______P_P_P_ SH111985 -28.5279 -155.424 XX 42 -5 -31.1670 -155.256 -28.7317 -155.449 2 41 -28.5279 -155.424 TC 42 43 130
1985012S16161 1985 8 SP MM ERIC 1985-01-19 18:00:00 TS -30.0869 206.487 main 2644 2644 O_______P_P_O_ jtwc_sh SH111985 -30.0000 -153.500 XX 40 -5 -32.1371 -153.402 -30.2608 -153.538 2 37 -30.0000 -153.500 TC 40 46 133
1985012S16161 1985 8 SP MM ERIC 1985-01-19 21:00:00 TS -31.7675 208.459 main 2791 2791 P_______P_P_P_ SH111985 -31.6960 -151.533 XX 35 -5 -33.0842 -151.515 -31.9105 -151.557 2 33 -31.6960 -151.533 TC 35 49 136
1985012S16161 1985 8 SP MM ERIC 1985-01-20 00:00:00 TS -33.6500 210.475 35 995 wellington main 2897 O_______O_O_O_ jtwc_sh SH111985 -33.5000 -149.500 XX 30 -5 -34.0000 -149.600 35 995 -33.6000 -149.500 1 30 -33.5000 -149.500 TC 30 51 138

デジタル台風データ・検索

IBTrACS Databaseについて

本データベースは、米国NOAAが公開する1842年以降の世界の熱帯低気圧のベストトラックデータアーカイブInternational Best Track Archive for Climate Stewardship (IBTrACS)を、ウェブで閲覧しやすい形式に変換したものです。

最終更新日:2021-11-26